createdAt,value
2022-09-22T00:01:33.554Z,98296.16
2022-09-22T00:04:07.274Z,98302.50
2022-09-22T00:06:39.765Z,98296.34
2022-09-22T00:09:12.041Z,98292.13
2022-09-22T00:11:58.004Z,98293.38
2022-09-22T00:14:28.309Z,98299.72
2022-09-22T00:17:01.165Z,98296.38
2022-09-22T00:19:35.079Z,98292.84
2022-09-22T00:22:04.181Z,98288.19
2022-09-22T00:24:32.306Z,98283.19
2022-09-22T00:27:00.489Z,98281.13
2022-09-22T00:29:30.263Z,98277.75
2022-09-22T00:31:59.612Z,98285.06
2022-09-22T00:34:30.164Z,98278.38
2022-09-22T00:36:57.867Z,98273.38
2022-09-22T00:39:27.266Z,98274.81
2022-09-22T00:41:55.061Z,98275.25
2022-09-22T00:44:34.084Z,98265.88
2022-09-22T00:47:36.536Z,98271.53
2022-09-22T00:50:18.361Z,98261.00
2022-09-22T00:53:10.952Z,98261.63
2022-09-22T00:55:52.524Z,98261.63
2022-09-22T00:58:41.132Z,98268.94
2022-09-22T01:01:09.564Z,98269.06
2022-09-22T01:03:39.285Z,98270.91
2022-09-22T01:06:11.343Z,98267.25
2022-09-22T01:08:40.386Z,98277.75
2022-09-22T01:11:08.584Z,98273.56
2022-09-22T01:13:42.078Z,98277.38
2022-09-22T01:16:36.570Z,98273.66
2022-09-22T01:19:49.548Z,98264.78
2022-09-22T01:22:36.511Z,98267.44
2022-09-22T01:25:42.328Z,98264.25
2022-09-22T01:29:07.432Z,98273.38
2022-09-22T01:31:50.717Z,98261.91
2022-09-22T01:34:38.212Z,98268.88
2022-09-22T01:37:37.341Z,98268.81
2022-09-22T01:40:17.436Z,98263.34
2022-09-22T01:42:58.993Z,98270.50
2022-09-22T01:45:31.111Z,98268.66
2022-09-22T01:48:30.897Z,98263.94
2022-09-22T01:51:04.492Z,98269.13
2022-09-22T01:53:42.903Z,98278.78
2022-09-22T01:56:14.192Z,98270.22
2022-09-22T01:58:58.110Z,98266.06
2022-09-22T02:01:52.220Z,98270.84
2022-09-22T02:04:36.261Z,98268.31
2022-09-22T02:07:14.331Z,98266.78
2022-09-22T02:09:43.755Z,98256.72
2022-09-22T02:12:11.562Z,98257.03
2022-09-22T02:14:39.430Z,98256.47
2022-09-22T02:17:08.954Z,98252.00
2022-09-22T02:19:39.978Z,98260.97
2022-09-22T02:22:10.535Z,98259.31
2022-09-22T02:24:44.762Z,98255.94
2022-09-22T02:27:26.907Z,98254.25
2022-09-22T02:30:04.270Z,98248.94
2022-09-22T02:32:34.210Z,98253.44
2022-09-22T02:35:02.342Z,98252.56
2022-09-22T02:37:58.090Z,98253.44
2022-09-22T02:40:30.940Z,98245.59
2022-09-22T02:42:58.578Z,98242.91
2022-09-22T02:45:33.071Z,98245.59
2022-09-22T02:48:18.408Z,98244.59
2022-09-22T02:50:46.160Z,98242.22
2022-09-22T02:53:17.313Z,98239.03
2022-09-22T02:55:46.156Z,98246.47
2022-09-22T02:58:17.276Z,98236.13
2022-09-22T03:00:45.612Z,98240.75
2022-09-22T03:03:13.468Z,98234.72
2022-09-22T03:05:41.243Z,98234.19
2022-09-22T03:08:09.124Z,98229.84
2022-09-22T03:10:36.955Z,98234.03
2022-09-22T03:13:20.221Z,98236.69
2022-09-22T03:15:49.075Z,98239.50
2022-09-22T03:18:17.239Z,98239.66
2022-09-22T03:20:45.713Z,98236.44
2022-09-22T03:23:13.476Z,98232.63
2022-09-22T03:25:41.233Z,98232.94
2022-09-22T03:28:09.189Z,98237.41
2022-09-22T03:30:37.402Z,98230.44
2022-09-22T03:33:05.178Z,98229.59
2022-09-22T03:35:32.943Z,98231.41
2022-09-22T03:38:00.699Z,98231.41
2022-09-22T03:40:28.560Z,98220.91
2022-09-22T03:42:56.386Z,98226.38
2022-09-22T03:45:24.945Z,98232.69
2022-09-22T03:47:54.064Z,98228.03
2022-09-22T03:50:21.935Z,98227.06
2022-09-22T03:52:49.849Z,98223.41
2022-09-22T03:55:17.649Z,98232.41
2022-09-22T03:57:45.582Z,98219.22
2022-09-22T04:00:14.196Z,98223.59
2022-09-22T04:02:42.075Z,98214.59
2022-09-22T04:05:11.168Z,98221.06
2022-09-22T04:07:39.079Z,98218.69
2022-09-22T04:10:07.820Z,98217.84
2022-09-22T04:12:37.238Z,98221.34
2022-09-22T04:15:06.310Z,98218.81
2022-09-22T04:17:34.054Z,98218.81
2022-09-22T04:20:02.234Z,98221.66
2022-09-22T04:22:30.062Z,98219.13
2022-09-22T04:24:57.885Z,98216.47
2022-09-22T04:27:25.858Z,98215.63
2022-09-22T04:29:53.827Z,98210.13
2022-09-22T04:32:21.607Z,98211.84
2022-09-22T04:34:49.793Z,98210.31
2022-09-22T04:37:17.601Z,98207.47
2022-09-22T04:39:45.347Z,98214.50
2022-09-22T04:42:13.096Z,98211.41
2022-09-22T04:44:40.885Z,98207.34
2022-09-22T04:47:08.680Z,98211.44
2022-09-22T04:49:36.446Z,98209.91
2022-09-22T04:52:04.514Z,98216.38
2022-09-22T04:54:32.561Z,98215.22
2022-09-22T04:57:00.986Z,98206.41
2022-09-22T04:59:29.762Z,98209.91
2022-09-22T05:01:57.540Z,98216.88
2022-09-22T05:04:26.108Z,98218.03
2022-09-22T05:06:53.827Z,98215.38
2022-09-22T05:09:21.877Z,98224.19
2022-09-22T05:11:49.570Z,98221.69
2022-09-22T05:14:21.580Z,98221.00
2022-09-22T05:16:52.406Z,98220.81
2022-09-22T05:19:21.115Z,98219.16
2022-09-22T05:21:48.842Z,98228.66
2022-09-22T05:24:16.583Z,98232.16
2022-09-22T05:26:44.295Z,98235.81
2022-09-22T05:29:12.095Z,98238.34
2022-09-22T05:31:39.941Z,98239.16
2022-09-22T05:34:07.748Z,98241.84
2022-09-22T05:36:35.442Z,98238.47
2022-09-22T05:39:03.260Z,98236.78
2022-09-22T05:41:31.065Z,98240.59
2022-09-22T05:43:58.796Z,98242.41
2022-09-22T05:46:26.516Z,98239.88
2022-09-22T05:48:54.270Z,98246.03
2022-09-22T05:51:21.983Z,98246.88
2022-09-22T05:53:49.794Z,98248.69
2022-09-22T05:56:17.510Z,98242.56
2022-09-22T05:58:47.865Z,98247.59
2022-09-22T06:01:15.826Z,98243.81
2022-09-22T06:03:43.632Z,98243.81
2022-09-22T06:06:11.374Z,98250.66
2022-09-22T06:08:39.151Z,98253.16
2022-09-22T06:11:07.316Z,98252.72
2022-09-22T06:13:35.825Z,98250.66
2022-09-22T06:16:04.485Z,98245.06
2022-09-22T06:18:33.910Z,98248.97
2022-09-22T06:21:01.632Z,98244.88
2022-09-22T06:23:29.469Z,98250.44
2022-09-22T06:25:58.951Z,98246.22
2022-09-22T06:28:26.953Z,98239.31
2022-09-22T06:31:00.588Z,98237.72
2022-09-22T06:33:29.259Z,98233.66
2022-09-22T06:36:01.736Z,98233.19
2022-09-22T06:38:32.024Z,98233.31
2022-09-22T06:41:02.891Z,98233.84
2022-09-22T06:43:31.073Z,98243.59
2022-09-22T06:46:00.400Z,98248.50
2022-09-22T06:48:28.233Z,98242.00
2022-09-22T06:50:55.971Z,98251.25
2022-09-22T06:53:27.241Z,98244.47
2022-09-22T06:55:55.543Z,98244.00
2022-09-22T06:58:23.336Z,98248.91
2022-09-22T07:00:51.306Z,98250.09
2022-09-22T07:03:22.894Z,98247.13
2022-09-22T07:05:54.612Z,98243.72
2022-09-22T07:08:24.404Z,98246.91
2022-09-22T07:10:54.954Z,98246.31
2022-09-22T07:13:29.718Z,98246.84
2022-09-22T07:16:02.386Z,98238.38
2022-09-22T07:18:30.925Z,98245.06
2022-09-22T07:21:10.401Z,98244.47
2022-09-22T07:23:39.196Z,98241.47
2022-09-22T07:26:12.155Z,98238.88
2022-09-22T07:28:40.696Z,98245.63
2022-09-22T07:31:12.691Z,98237.16
2022-09-22T07:33:43.423Z,98238.50
2022-09-22T07:36:23.141Z,98244.03
2022-09-22T07:38:53.819Z,98242.78
2022-09-22T07:41:29.603Z,98246.78
2022-09-22T07:44:19.416Z,98240.16
2022-09-22T07:46:47.240Z,98239.81
2022-09-22T07:49:15.344Z,98240.19
2022-09-22T07:51:43.811Z,98239.72
2022-09-22T07:54:11.959Z,98247.94
2022-09-22T07:56:45.044Z,98244.78
2022-09-22T07:59:16.743Z,98240.66
2022-09-22T08:01:48.937Z,98241.03
2022-09-22T08:04:41.351Z,98246.53
2022-09-22T08:07:09.285Z,98231.72
2022-09-22T08:09:37.195Z,98229.72
2022-09-22T08:12:05.277Z,98226.59
2022-09-22T08:14:32.990Z,98225.94
2022-09-22T08:17:00.733Z,98235.00
2022-09-22T08:19:30.186Z,98228.63
2022-09-22T08:21:58.660Z,98221.81
2022-09-22T08:24:26.401Z,98223.97
2022-09-22T08:26:56.050Z,98223.50
2022-09-22T08:29:24.588Z,98229.84
2022-09-22T08:31:52.625Z,98227.69
2022-09-22T08:34:22.517Z,98224.56
2022-09-22T08:36:50.364Z,98224.06
2022-09-22T08:39:18.911Z,98226.22
2022-09-22T08:42:05.948Z,98224.75
2022-09-22T08:44:59.901Z,98231.81
2022-09-22T08:48:04.907Z,98225.31
2022-09-22T08:51:11.792Z,98226.31
2022-09-22T08:53:50.473Z,98228.81
2022-09-22T08:56:48.511Z,98233.53
2022-09-22T08:59:30.415Z,98228.00
2022-09-22T09:02:30.072Z,98221.47
2022-09-22T09:05:39.187Z,98227.47
2022-09-22T09:08:23.057Z,98230.13
2022-09-22T09:11:16.332Z,98231.97
2022-09-22T09:14:26.753Z,98226.94
2022-09-22T09:17:03.914Z,98231.28
2022-09-22T09:20:12.495Z,98223.75
2022-09-22T09:22:48.462Z,98221.88
2022-09-22T09:25:42.068Z,98217.00
2022-09-22T09:28:26.913Z,98214.84
2022-09-22T09:31:14.199Z,98216.81
2022-09-22T09:34:06.147Z,98216.97
2022-09-22T09:36:42.031Z,98213.75
2022-09-22T09:39:46.137Z,98210.56
2022-09-22T09:42:33.260Z,98214.38
2022-09-22T09:45:02.892Z,98216.69
2022-09-22T09:47:59.661Z,98212.47
2022-09-22T09:50:32.205Z,98212.63
2022-09-22T09:53:00.499Z,98209.41
2022-09-22T09:55:28.249Z,98211.03
2022-09-22T09:58:11.428Z,98211.31
2022-09-22T10:00:59.509Z,98208.75
2022-09-22T10:03:32.853Z,98207.41
2022-09-22T10:06:10.219Z,98205.84
2022-09-22T10:08:51.563Z,98213.19
2022-09-22T10:11:32.753Z,98203.56
2022-09-22T10:14:00.796Z,98212.75
2022-09-22T10:16:31.613Z,98207.66
2022-09-22T10:18:59.425Z,98203.81
2022-09-22T10:21:28.308Z,98191.56
2022-09-22T10:23:59.538Z,98197.84
2022-09-22T10:26:32.281Z,98202.69
2022-09-22T10:29:21.088Z,98187.22
2022-09-22T10:32:03.429Z,98188.19
2022-09-22T10:34:36.872Z,98184.28
2022-09-22T10:37:10.519Z,98183.56
2022-09-22T10:39:49.907Z,98180.13
2022-09-22T10:42:45.444Z,98188.47
2022-09-22T10:45:19.451Z,98176.81
2022-09-22T10:48:15.614Z,98176.25
2022-09-22T10:50:49.372Z,98167.28
2022-09-22T10:54:06.398Z,98166.63
2022-09-22T10:56:51.792Z,98166.44
2022-09-22T10:59:33.454Z,98162.72
2022-09-22T11:02:39.438Z,98167.34
2022-09-22T11:05:50.213Z,98172.66
2022-09-22T11:08:39.174Z,98171.72
2022-09-22T11:11:46.403Z,98160.84
2022-09-22T11:14:55.017Z,98167.38
2022-09-22T11:17:53.218Z,98161.03
2022-09-22T11:20:41.867Z,98162.97
2022-09-22T11:23:40.422Z,98148.94
2022-09-22T11:26:44.991Z,98151.91
2022-09-22T11:29:48.655Z,98142.41
2022-09-22T11:32:49.727Z,98133.56
2022-09-22T11:35:50.709Z,98136.53
2022-09-22T11:38:55.722Z,98128.31
2022-09-22T11:42:02.034Z,98123.84
2022-09-22T11:44:42.226Z,98127.41
2022-09-22T11:47:28.458Z,98115.91
2022-09-22T11:50:35.703Z,98114.28
2022-09-22T11:53:44.135Z,98116.63
2022-09-22T11:56:55.577Z,98108.84
2022-09-22T11:59:57.394Z,98107.13
2022-09-22T12:02:54.482Z,98115.41
2022-09-22T12:05:49.083Z,98114.88
2022-09-22T12:08:23.137Z,98106.63
2022-09-22T12:10:52.780Z,98105.22
2022-09-22T12:13:28.129Z,98109.63
2022-09-22T12:16:18.717Z,98102.19
2022-09-22T12:19:03.267Z,98098.91
2022-09-22T12:21:30.915Z,98097.72
2022-09-22T12:24:07.869Z,98094.41
2022-09-22T12:26:43.179Z,98099.41
2022-09-22T12:29:23.602Z,98094.50
2022-09-22T12:31:55.666Z,98091.63
2022-09-22T12:34:34.167Z,98087.91
2022-09-22T12:37:46.422Z,98080.84
2022-09-22T12:40:14.075Z,98097.28
2022-09-22T12:42:46.330Z,98090.84
2022-09-22T12:45:20.942Z,98081.06
2022-09-22T12:47:52.532Z,98080.03
2022-09-22T12:50:40.578Z,98079.41
2022-09-22T12:53:26.055Z,98077.16
2022-09-22T12:55:56.687Z,98069.84
2022-09-22T12:58:30.118Z,98070.09
2022-09-22T13:01:28.950Z,98068.22
2022-09-22T13:04:12.031Z,98068.41
2022-09-22T13:06:39.685Z,98065.91
2022-09-22T13:09:17.310Z,98064.63
2022-09-22T13:12:14.667Z,98064.19
2022-09-22T13:15:17.528Z,98065.16
2022-09-22T13:17:51.116Z,98058.69
2022-09-22T13:20:25.146Z,98056.97
2022-09-22T13:22:55.692Z,98056.94
2022-09-22T13:25:28.281Z,98057.75
2022-09-22T13:28:20.154Z,98042.94
2022-09-22T13:31:22.462Z,98044.75
2022-09-22T13:33:53.521Z,98043.88
2022-09-22T13:36:26.945Z,98050.09
2022-09-22T13:39:03.384Z,98042.09
2022-09-22T13:41:45.906Z,98035.16
2022-09-22T13:44:30.606Z,98044.00
2022-09-22T13:47:09.631Z,98034.19
2022-09-22T13:49:48.881Z,98036.63
2022-09-22T13:52:38.916Z,98032.81
2022-09-22T13:55:26.289Z,98035.22
2022-09-22T13:58:02.570Z,98026.38
2022-09-22T14:01:11.509Z,98016.09
2022-09-22T14:03:39.503Z,98018.28
2022-09-22T14:06:53.879Z,98017.75
2022-09-22T14:09:26.364Z,98013.91
2022-09-22T14:11:56.502Z,98008.59
2022-09-22T14:14:27.443Z,98003.78
2022-09-22T14:17:05.983Z,98010.22
2022-09-22T14:20:06.241Z,98011.56
2022-09-22T14:22:43.029Z,98006.91
2022-09-22T14:25:20.193Z,98005.38
2022-09-22T14:27:57.910Z,98009.88
2022-09-22T14:30:31.174Z,98000.22
2022-09-22T14:33:03.425Z,98001.41
2022-09-22T14:35:37.318Z,98000.03
2022-09-22T14:38:15.526Z,97990.16
2022-09-22T14:40:58.414Z,97991.84
2022-09-22T14:43:42.333Z,97989.84
2022-09-22T14:46:41.803Z,97993.28
2022-09-22T14:49:37.535Z,97991.56
2022-09-22T14:52:15.017Z,97990.03
2022-09-22T14:54:44.665Z,97982.72
2022-09-22T14:57:16.729Z,97980.34
2022-09-22T15:00:11.958Z,97980.94
2022-09-22T15:02:44.552Z,97981.78
2022-09-22T15:05:30.347Z,97971.84
2022-09-22T15:07:58.874Z,97966.19
2022-09-22T15:10:32.345Z,97965.25
2022-09-22T15:13:31.851Z,97963.25
2022-09-22T15:15:59.594Z,97962.88
2022-09-22T15:18:30.805Z,97965.75
2022-09-22T15:21:11.196Z,97965.50
2022-09-22T15:23:47.060Z,97957.81
2022-09-22T15:26:24.914Z,97953.94
2022-09-22T15:28:56.120Z,97956.41
2022-09-22T15:31:28.457Z,97954.16
2022-09-22T15:34:01.293Z,97955.09
2022-09-22T15:36:32.894Z,97957.22
2022-09-22T15:39:21.948Z,97953.22
2022-09-22T15:41:51.990Z,97943.16
2022-09-22T15:44:20.630Z,97941.75
2022-09-22T15:46:52.478Z,97943.88
2022-09-22T15:49:25.025Z,97938.81
2022-09-22T15:51:56.006Z,97941.38
2022-09-22T15:54:26.243Z,97931.91
2022-09-22T15:56:56.538Z,97943.69
2022-09-22T15:59:28.623Z,97939.06
2022-09-22T16:01:57.497Z,97931.97
2022-09-22T16:04:35.524Z,97938.41
2022-09-22T16:07:12.426Z,97933.19
2022-09-22T16:09:40.262Z,97934.28
2022-09-22T16:12:11.086Z,97925.69
2022-09-22T16:14:41.041Z,97926.72
2022-09-22T16:17:08.814Z,97922.88
2022-09-22T16:19:36.570Z,97924.69
2022-09-22T16:22:05.916Z,97927.75
2022-09-22T16:24:33.750Z,97924.75
2022-09-22T16:27:04.196Z,97923.78
2022-09-22T16:29:33.581Z,97931.81
2022-09-22T16:32:01.556Z,97930.47
2022-09-22T16:34:29.423Z,97926.44
2022-09-22T16:36:57.340Z,97936.72
2022-09-22T16:39:25.159Z,97931.19
2022-09-22T16:41:52.853Z,97933.31
2022-09-22T16:44:22.113Z,97931.50
2022-09-22T16:46:49.882Z,97933.81
2022-09-22T16:49:20.068Z,97933.25
2022-09-22T16:51:50.542Z,97928.09
2022-09-22T16:54:19.546Z,97936.25
2022-09-22T16:56:50.545Z,97941.28
2022-09-22T16:59:23.382Z,97936.13
2022-09-22T17:01:51.426Z,97936.38
2022-09-22T17:04:19.873Z,97935.78
2022-09-22T17:06:48.633Z,97932.50
2022-09-22T17:09:18.084Z,97936.88
2022-09-22T17:11:48.690Z,97939.19
2022-09-22T17:14:22.180Z,97941.06
2022-09-22T17:16:55.375Z,97931.13
2022-09-22T17:19:26.582Z,97934.44
2022-09-22T17:21:56.603Z,97935.28
2022-09-22T17:24:26.985Z,97934.25
2022-09-22T17:26:58.251Z,97929.72
2022-09-22T17:29:32.804Z,97927.44
2022-09-22T17:32:04.398Z,97929.94
2022-09-22T17:34:34.370Z,97938.88
2022-09-22T17:37:03.804Z,97934.94
2022-09-22T17:39:32.313Z,97938.69
2022-09-22T17:42:00.178Z,97935.97
2022-09-22T17:44:29.139Z,97935.53
2022-09-22T17:47:15.605Z,97934.53
2022-09-22T17:50:02.059Z,97936.19
2022-09-22T17:52:48.685Z,97945.94
2022-09-22T17:55:22.529Z,97947.38
2022-09-22T17:57:52.641Z,97946.31
2022-09-22T18:00:23.061Z,97939.03
2022-09-22T18:02:54.286Z,97941.53
2022-09-22T18:05:26.783Z,97944.00
2022-09-22T18:07:58.569Z,97948.13
2022-09-22T18:10:31.062Z,97949.59
2022-09-22T18:12:59.770Z,97948.97
2022-09-22T18:15:28.088Z,97943.16
2022-09-22T18:17:58.201Z,97941.06
2022-09-22T18:20:27.768Z,97947.91
2022-09-22T18:22:56.079Z,97943.72
2022-09-22T18:25:25.703Z,97946.00
2022-09-22T18:27:55.114Z,97948.06
2022-09-22T18:30:23.137Z,97951.00
2022-09-22T18:32:50.978Z,97949.72
2022-09-22T18:35:18.791Z,97947.63
2022-09-22T18:37:46.506Z,97952.41
2022-09-22T18:40:16.218Z,97955.69
2022-09-22T18:42:44.598Z,97948.22
2022-09-22T18:45:14.238Z,97948.63
2022-09-22T18:47:43.495Z,97951.72
2022-09-22T18:50:12.749Z,97960.19
2022-09-22T18:52:43.201Z,97953.75
2022-09-22T18:55:14.171Z,97960.53
2022-09-22T18:57:42.840Z,97957.19
2022-09-22T19:00:13.832Z,97953.88
2022-09-22T19:02:41.837Z,97957.63
2022-09-22T19:05:09.785Z,97961.31
2022-09-22T19:07:41.551Z,97966.91
2022-09-22T19:10:13.935Z,97961.50
2022-09-22T19:12:42.806Z,97964.00
2022-09-22T19:15:15.446Z,97967.91
2022-09-22T19:17:45.861Z,97967.25
2022-09-22T19:20:21.298Z,97964.34
2022-09-22T19:22:50.534Z,97966.78
2022-09-22T19:25:21.458Z,97964.91
2022-09-22T19:27:52.511Z,97966.78
2022-09-22T19:30:24.876Z,97964.03
2022-09-22T19:32:55.512Z,97959.25
2022-09-22T19:35:23.922Z,97965.00
2022-09-22T19:37:52.483Z,97961.06
2022-09-22T19:40:24.434Z,97958.34
2022-09-22T19:42:53.268Z,97964.78
2022-09-22T19:45:21.995Z,97967.84
2022-09-22T19:47:49.796Z,97968.03
2022-09-22T19:50:18.230Z,97967.59
2022-09-22T19:52:46.130Z,97969.66
2022-09-22T19:55:16.916Z,97970.44
2022-09-22T19:57:46.952Z,97962.56
2022-09-22T20:00:26.282Z,97956.53
2022-09-22T20:02:58.771Z,97961.88
2022-09-22T20:05:34.741Z,97966.44
2022-09-22T20:08:07.064Z,97960.81
2022-09-22T20:10:35.528Z,97966.56
2022-09-22T20:13:23.336Z,97962.59
2022-09-22T20:15:51.093Z,97961.59
2022-09-22T20:18:22.266Z,97950.75
2022-09-22T20:20:51.527Z,97950.13
2022-09-22T20:23:21.690Z,97942.63
2022-09-22T20:25:51.507Z,97948.19
2022-09-22T20:28:19.332Z,97943.00
2022-09-22T20:30:47.197Z,97946.06
2022-09-22T20:33:21.552Z,97941.91
2022-09-22T20:35:52.282Z,97938.78
2022-09-22T20:38:20.018Z,97940.81
2022-09-22T20:40:48.604Z,97945.56
2022-09-22T20:43:16.657Z,97935.00
2022-09-22T20:45:44.967Z,97935.66
2022-09-22T20:48:18.689Z,97938.13
2022-09-22T20:50:58.623Z,97929.94
2022-09-22T20:53:27.238Z,97932.38
2022-09-22T20:56:06.659Z,97936.22
2022-09-22T20:58:40.703Z,97937.44
2022-09-22T21:01:10.911Z,97937.63
2022-09-22T21:03:39.315Z,97939.03
2022-09-22T21:06:10.606Z,97937.75
2022-09-22T21:09:01.763Z,97943.13
2022-09-22T21:11:30.771Z,97940.44
2022-09-22T21:14:05.773Z,97934.81
2022-09-22T21:16:36.357Z,97937.03
2022-09-22T21:19:04.762Z,97935.38
2022-09-22T21:21:36.633Z,97933.06
2022-09-22T21:24:05.543Z,97938.66
2022-09-22T21:26:34.075Z,97936.97
2022-09-22T21:29:01.858Z,97932.63
2022-09-22T21:31:29.800Z,97929.50
2022-09-22T21:33:57.620Z,97933.38
2022-09-22T21:36:25.500Z,97932.56
2022-09-22T21:38:59.227Z,97931.09
2022-09-22T21:41:30.301Z,97932.09
2022-09-22T21:43:58.265Z,97927.94
2022-09-22T21:46:29.795Z,97925.44
2022-09-22T21:49:01.832Z,97923.97
2022-09-22T21:51:41.321Z,97928.72
2022-09-22T21:54:14.176Z,97932.59
2022-09-22T21:56:42.373Z,97924.94
2022-09-22T21:59:12.429Z,97919.47
2022-09-22T22:01:42.231Z,97920.88
2022-09-22T22:04:13.874Z,97917.34
2022-09-22T22:06:44.459Z,97909.03
2022-09-22T22:09:24.009Z,97908.38
2022-09-22T22:11:56.620Z,97912.28
2022-09-22T22:14:32.643Z,97901.91
2022-09-22T22:17:02.348Z,97905.63
2022-09-22T22:19:30.394Z,97894.06
2022-09-22T22:21:58.160Z,97902.31
2022-09-22T22:24:26.015Z,97900.34
2022-09-22T22:27:09.978Z,97905.25
2022-09-22T22:29:41.353Z,97900.88
2022-09-22T22:32:10.725Z,97897.31
2022-09-22T22:34:38.721Z,97895.91
2022-09-22T22:37:09.627Z,97892.94
2022-09-22T22:39:38.014Z,97893.34
2022-09-22T22:42:07.021Z,97891.03
2022-09-22T22:44:35.339Z,97894.28
2022-09-22T22:47:03.316Z,97892.13
2022-09-22T22:49:31.373Z,97892.88
2022-09-22T22:51:59.155Z,97890.94
2022-09-22T22:54:26.880Z,97885.91
2022-09-22T22:56:54.585Z,97885.00
2022-09-22T22:59:22.345Z,97884.44
2022-09-22T23:01:50.156Z,97880.09
2022-09-22T23:04:17.944Z,97877.13
2022-09-22T23:06:47.767Z,97876.47
2022-09-22T23:09:17.248Z,97872.50
2022-09-22T23:11:46.419Z,97873.88
2022-09-22T23:14:16.341Z,97867.88
2022-09-22T23:16:47.031Z,97864.72
2022-09-22T23:19:17.673Z,97871.94
2022-09-22T23:21:46.563Z,97865.63
2022-09-22T23:24:16.941Z,97868.97
2022-09-22T23:26:46.246Z,97877.72
2022-09-22T23:29:14.458Z,97871.53
2022-09-22T23:31:42.712Z,97870.75
2022-09-22T23:34:10.530Z,97866.59
2022-09-22T23:36:39.586Z,97863.09
2022-09-22T23:39:07.619Z,97864.06
2022-09-22T23:41:37.070Z,97864.97
2022-09-22T23:44:12.245Z,97868.84
2022-09-22T23:46:39.966Z,97869.03
2022-09-22T23:49:07.936Z,97870.56
2022-09-22T23:51:35.678Z,97862.06
2022-09-22T23:54:03.476Z,97862.88
2022-09-22T23:56:31.238Z,97864.75
2022-09-22T23:58:58.964Z,97858.56
